Time;durP1;ratioP1;P1;durP2;ratioP2;P2;SDS_P1;SDS_P2;PMS_P1;PMS_P2;Temp;Humidity;BMP_temperature;BMP_pressure;BME280_temperature;BME280_humidity;BME280_pressure;Samples;Min_cycle;Max_cycle;Signal;HPM_P1;HPM_P2
2023/07/21 00:01:43;;;;;;;;;;;14.10;99.90;;;;;;5125012;27;19994;-43
2023/07/21 00:04:08;;;;;;;;;;;14.00;99.90;;;;;;5115242;28;19911;-45
2023/07/21 00:06:34;;;;;;;;;;;14.00;99.90;;;;;;5115464;28;19915;-45
2023/07/21 00:08:59;;;;;;;;;;;14.00;99.90;;;;;;5114558;28;19915;-44
2023/07/21 00:11:25;;;;;;;;;;;14.00;99.90;;;;;;5126993;27;19934;-44
2023/07/21 00:13:50;;;;;;;;;;;13.90;99.90;;;;;;5135826;27;19916;-44
2023/07/21 00:16:18;;;;;;;;;;;13.90;99.90;;;;;;5135051;27;19931;-48
2023/07/21 00:18:44;;;;;;;;;;;13.90;99.90;;;;;;5135647;27;20370;-45
2023/07/21 00:21:10;;;;;;;;;;;13.80;99.90;;;;;;5135306;27;19923;-43
2023/07/21 00:23:36;;;;;;;;;;;13.80;99.90;;;;;;5134923;27;19908;-44
2023/07/21 00:26:01;;;;;;;;;;;13.80;99.90;;;;;;5135656;27;19989;-43
2023/07/21 00:28:27;;;;;;;;;;;13.80;99.90;;;;;;5135658;27;19918;-44
2023/07/21 00:30:52;;;;;;;;;;;13.80;99.90;;;;;;5134459;27;19912;-45
2023/07/21 00:33:18;;;;;;;;;;;13.80;99.90;;;;;;5135395;27;20285;-44
2023/07/21 00:35:43;;;;;;;;;;;13.80;99.90;;;;;;5135494;27;20385;-44
2023/07/21 00:38:09;;;;;;;;;;;13.80;99.90;;;;;;5134610;27;19922;-43
2023/07/21 00:40:38;;;;;;;;;;;13.80;99.90;;;;;;5134622;27;19911;-44
2023/07/21 00:43:04;;;;;;;;;;;13.80;99.90;;;;;;5135323;27;20282;-43
2023/07/21 00:45:33;;;;;;;;;;;13.80;99.90;;;;;;5134524;27;19915;-45
2023/07/21 00:48:00;;;;;;;;;;;13.80;99.90;;;;;;5135217;27;19915;-44
2023/07/21 00:50:25;;;;;;;;;;;13.80;99.90;;;;;;5134024;27;20002;-43
2023/07/21 00:52:51;;;;;;;;;;;13.80;99.90;;;;;;5134986;27;19994;-44
2023/07/21 00:55:17;;;;;;;;;;;13.80;99.90;;;;;;5135079;27;19911;-43
2023/07/21 00:57:42;;;;;;;;;;;13.80;99.90;;;;;;5134198;27;19937;-44
2023/07/21 01:00:12;;;;;;;;;;;13.80;99.90;;;;;;5134515;27;19923;-47
2023/07/21 01:02:37;;;;;;;;;;;13.80;99.90;;;;;;5134908;27;19912;-45
2023/07/21 01:05:03;;;;;;;;;;;13.80;99.90;;;;;;5134112;27;19952;-42
2023/07/21 01:07:30;;;;;;;;;;;13.80;99.90;;;;;;5134718;27;19908;-43
2023/07/21 01:09:56;;;;;;;;;;;13.80;99.90;;;;;;5123322;27;19912;-42
2023/07/21 01:12:21;;;;;;;;;;;13.80;99.90;;;;;;5113425;28;19907;-44
2023/07/21 01:14:47;;;;;;;;;;;13.80;99.90;;;;;;5113875;28;19976;-44
2023/07/21 01:17:14;;;;;;;;;;;13.80;99.90;;;;;;5114039;28;19908;-44
2023/07/21 01:19:41;;;;;;;;;;;13.80;99.90;;;;;;5113170;27;20370;-47
2023/07/21 01:22:12;;;;;;;;;;;13.70;99.90;;;;;;5113910;28;19915;-45
2023/07/21 01:24:52;;;;;;;;;;;13.70;99.90;;;;;;5114043;28;19994;-44
2023/07/21 01:27:20;;;;;;;;;;;13.70;99.90;;;;;;5094630;28;19915;-45
2023/07/21 01:29:46;;;;;;;;;;;13.70;99.90;;;;;;5113655;28;19912;-45
2023/07/21 01:32:13;;;;;;;;;;;13.70;99.90;;;;;;5113800;28;19915;-47
2023/07/21 01:34:39;;;;;;;;;;;13.70;99.90;;;;;;5113029;28;19920;-45
2023/07/21 01:37:06;;;;;;;;;;;13.70;99.90;;;;;;5113695;28;20362;-44
2023/07/21 01:39:31;;;;;;;;;;;13.70;99.90;;;;;;5113669;28;19912;-44
2023/07/21 01:41:59;;;;;;;;;;;13.70;99.90;;;;;;5112798;28;19996;-43
2023/07/21 01:44:25;;;;;;;;;;;13.70;99.90;;;;;;5113625;28;19962;-43
2023/07/21 01:46:52;;;;;;;;;;;13.60;99.90;;;;;;5112767;28;19912;-45
2023/07/21 01:49:18;;;;;;;;;;;13.70;99.90;;;;;;5129884;27;19961;-46
2023/07/21 01:51:44;;;;;;;;;;;13.70;99.90;;;;;;5134161;27;19915;-43
2023/07/21 01:54:13;;;;;;;;;;;13.60;99.90;;;;;;5133072;27;19920;-46
2023/07/21 01:56:46;;;;;;;;;;;13.60;99.90;;;;;;5134027;27;19972;-44
2023/07/21 01:59:12;;;;;;;;;;;13.60;99.90;;;;;;5133597;27;19907;-49
2023/07/21 02:01:38;;;;;;;;;;;13.60;99.90;;;;;;5133095;27;19918;-49
2023/07/21 02:04:04;;;;;;;;;;;13.60;99.90;;;;;;5133847;27;19911;-44
2023/07/21 02:06:31;;;;;;;;;;;13.50;99.90;;;;;;5131919;27;20573;-45
2023/07/21 02:08:56;;;;;;;;;;;13.50;99.90;;;;;;5133053;27;19911;-43
2023/07/21 02:11:22;;;;;;;;;;;13.50;99.90;;;;;;5133679;27;19960;-43
2023/07/21 02:13:49;;;;;;;;;;;13.50;99.90;;;;;;5133744;28;19915;-42
2023/07/21 02:16:15;;;;;;;;;;;13.50;99.90;;;;;;5132351;28;19913;-44
2023/07/21 02:18:41;;;;;;;;;;;13.50;99.90;;;;;;5133685;28;20006;-43
2023/07/21 02:21:06;;;;;;;;;;;13.50;99.90;;;;;;5133585;28;19907;-44
2023/07/21 02:23:32;;;;;;;;;;;13.50;99.90;;;;;;5132971;28;20003;-46
2023/07/21 02:25:58;;;;;;;;;;;13.50;99.90;;;;;;5135344;27;19908;-43
2023/07/21 02:28:24;;;;;;;;;;;13.40;99.90;;;;;;5137906;27;20148;-43
2023/07/21 02:31:03;;;;;;;;;;;13.40;99.90;;;;;;5137063;27;20486;-44
2023/07/21 02:33:32;;;;;;;;;;;13.50;99.90;;;;;;5137848;27;20258;-43
2023/07/21 02:35:59;;;;;;;;;;;13.40;99.90;;;;;;5136655;27;19968;-42
2023/07/21 02:38:25;;;;;;;;;;;13.30;99.90;;;;;;5137711;27;20005;-44
2023/07/21 02:40:51;;;;;;;;;;;13.40;99.90;;;;;;5137528;27;19958;-42
2023/07/21 02:43:17;;;;;;;;;;;13.40;99.90;;;;;;5127312;27;19919;-43
2023/07/21 02:45:53;;;;;;;;;;;13.30;99.90;;;;;;5124775;27;19950;-43
2023/07/21 02:48:19;;;;;;;;;;;13.30;99.90;;;;;;5117016;28;19912;-43
2023/07/21 02:50:49;;;;;;;;;;;13.20;99.90;;;;;;5116214;28;19908;-43
2023/07/21 02:53:15;;;;;;;;;;;13.30;99.90;;;;;;5116638;28;19911;-44
2023/07/21 02:55:41;;;;;;;;;;;13.20;99.90;;;;;;5116711;28;19990;-44
2023/07/21 02:58:07;;;;;;;;;;;13.20;99.90;;;;;;5116019;28;19998;-44
2023/07/21 03:00:32;;;;;;;;;;;13.20;99.90;;;;;;5116861;28;20255;-42
2023/07/21 03:02:58;;;;;;;;;;;13.20;99.90;;;;;;5116660;28;19930;-42
2023/07/21 03:05:23;;;;;;;;;;;13.20;99.90;;;;;;5135541;27;19947;-44
2023/07/21 03:07:49;;;;;;;;;;;13.10;99.90;;;;;;5137324;27;20134;-45
2023/07/21 03:10:16;;;;;;;;;;;13.20;99.90;;;;;;5136961;27;19907;-46
2023/07/21 03:12:42;;;;;;;;;;;13.10;99.90;;;;;;5136512;27;20069;-45
2023/07/21 03:15:08;;;;;;;;;;;13.10;99.90;;;;;;5119283;27;20467;-44
2023/07/21 03:17:33;;;;;;;;;;;13.10;99.90;;;;;;5116430;28;19908;-44
2023/07/21 03:19:59;;;;;;;;;;;13.10;99.90;;;;;;5115802;28;19912;-44
2023/07/21 03:22:25;;;;;;;;;;;13.00;99.90;;;;;;5116355;28;20384;-42
2023/07/21 03:24:50;;;;;;;;;;;13.00;99.90;;;;;;5116457;28;19918;-45
2023/07/21 03:27:16;;;;;;;;;;;13.00;99.90;;;;;;5115539;28;19914;-43
2023/07/21 03:29:42;;;;;;;;;;;13.00;99.90;;;;;;5116394;28;19907;-45
2023/07/21 03:32:08;;;;;;;;;;;12.90;99.90;;;;;;5115302;28;19907;-47
2023/07/21 03:34:35;;;;;;;;;;;12.90;99.90;;;;;;5116247;28;20346;-43
2023/07/21 03:37:07;;;;;;;;;;;12.90;99.90;;;;;;5115940;28;19914;-43
2023/07/21 03:39:32;;;;;;;;;;;12.90;99.90;;;;;;5115294;28;19946;-43
2023/07/21 03:41:58;;;;;;;;;;;12.80;99.90;;;;;;5115729;28;19947;-45
2023/07/21 03:44:23;;;;;;;;;;;12.90;99.90;;;;;;5115694;28;20350;-43
2023/07/21 03:46:49;;;;;;;;;;;12.80;99.90;;;;;;5115255;28;19950;-44
2023/07/21 03:49:16;;;;;;;;;;;12.80;99.90;;;;;;5115019;28;20412;-45
2023/07/21 03:51:42;;;;;;;;;;;12.70;99.90;;;;;;5118242;27;20000;-44
2023/07/21 03:54:07;;;;;;;;;;;12.70;99.90;;;;;;5135421;27;19915;-44
2023/07/21 03:56:33;;;;;;;;;;;12.70;99.90;;;;;;5136491;27;19914;-42
2023/07/21 03:58:58;;;;;;;;;;;12.70;99.90;;;;;;5136177;27;19919;-43
2023/07/21 04:01:24;;;;;;;;;;;12.70;99.90;;;;;;5139318;27;19911;-44
2023/07/21 04:03:51;;;;;;;;;;;12.70;99.90;;;;;;5139340;27;19907;-43
2023/07/21 04:06:20;;;;;;;;;;;12.70;99.90;;;;;;5116719;27;20366;-43
2023/07/21 04:08:46;;;;;;;;;;;12.70;99.90;;;;;;5151605;27;19907;-44
2023/07/21 04:11:11;;;;;;;;;;;12.70;99.90;;;;;;5146670;27;20313;-43
2023/07/21 04:13:37;;;;;;;;;;;12.70;99.90;;;;;;5136010;27;19915;-42
2023/07/21 04:16:02;;;;;;;;;;;12.80;99.90;;;;;;5134986;27;19907;-43
2023/07/21 04:18:28;;;;;;;;;;;12.70;99.90;;;;;;5135859;27;19911;-43
2023/07/21 04:20:53;;;;;;;;;;;12.80;99.90;;;;;;5135880;27;20137;-43
2023/07/21 04:23:18;;;;;;;;;;;12.80;99.90;;;;;;5134575;27;20289;-44
2023/07/21 04:25:44;;;;;;;;;;;12.80;99.90;;;;;;5135725;27;19994;-43
2023/07/21 04:28:10;;;;;;;;;;;12.80;99.90;;;;;;5135630;27;19919;-47
2023/07/21 04:30:35;;;;;;;;;;;12.80;99.90;;;;;;5134942;27;20392;-44
2023/07/21 04:33:01;;;;;;;;;;;12.80;99.90;;;;;;5135484;27;19915;-44
2023/07/21 04:35:26;;;;;;;;;;;12.90;99.90;;;;;;5134729;27;19908;-42
2023/07/21 04:37:52;;;;;;;;;;;12.90;99.90;;;;;;5134971;27;19911;-47
2023/07/21 04:40:20;;;;;;;;;;;13.00;99.90;;;;;;5135425;27;19999;-43
2023/07/21 04:42:46;;;;;;;;;;;13.00;99.90;;;;;;5116613;27;19935;-44
2023/07/21 04:45:11;;;;;;;;;;;13.00;99.90;;;;;;5114640;28;19911;-44
2023/07/21 04:47:38;;;;;;;;;;;13.00;99.90;;;;;;5114605;28;19987;-45
2023/07/21 04:50:03;;;;;;;;;;;13.10;99.90;;;;;;5113580;28;19991;-44
2023/07/21 04:52:29;;;;;;;;;;;13.10;99.90;;;;;;5116418;27;19950;-42
2023/07/21 04:54:54;;;;;;;;;;;13.10;99.90;;;;;;5135078;27;20009;-46
2023/07/21 04:57:20;;;;;;;;;;;13.20;99.90;;;;;;5134186;27;19918;-43
2023/07/21 04:59:46;;;;;;;;;;;13.20;99.90;;;;;;5135065;27;19912;-43
2023/07/21 05:02:11;;;;;;;;;;;13.30;99.90;;;;;;5134879;27;19911;-44
2023/07/21 05:04:37;;;;;;;;;;;13.30;99.90;;;;;;5134115;27;19960;-43
2023/07/21 05:07:03;;;;;;;;;;;13.30;99.90;;;;;;5134532;27;19951;-42
2023/07/21 05:09:29;;;;;;;;;;;13.30;99.90;;;;;;5134913;27;19908;-43
2023/07/21 05:11:55;;;;;;;;;;;13.40;99.90;;;;;;5145503;27;20353;-43
2023/07/21 05:14:20;;;;;;;;;;;13.40;99.90;;;;;;5154987;27;19926;-44
2023/07/21 05:16:45;;;;;;;;;;;13.40;99.90;;;;;;5155588;27;19941;-43
2023/07/21 05:19:11;;;;;;;;;;;13.40;99.90;;;;;;5154547;27;19950;-42
2023/07/21 05:21:36;;;;;;;;;;;13.50;99.90;;;;;;5155227;27;19907;-43
2023/07/21 05:24:02;;;;;;;;;;;13.50;99.90;;;;;;5155416;27;19911;-42
2023/07/21 05:26:28;;;;;;;;;;;13.60;99.90;;;;;;5154603;27;19956;-45
2023/07/21 05:28:56;;;;;;;;;;;13.60;99.90;;;;;;5155285;27;19914;-44
2023/07/21 05:31:22;;;;;;;;;;;13.60;99.90;;;;;;5154711;27;19922;-45
2023/07/21 05:33:49;;;;;;;;;;;13.60;99.90;;;;;;5154280;27;19919;-46
2023/07/21 05:36:15;;;;;;;;;;;13.70;99.90;;;;;;5154920;27;20326;-42
2023/07/21 05:38:40;;;;;;;;;;;13.60;99.90;;;;;;5121431;27;19908;-50
2023/07/21 05:41:06;;;;;;;;;;;13.70;99.90;;;;;;5121815;27;19923;-43
2023/07/21 05:43:31;;;;;;;;;;;13.70;99.90;;;;;;5134705;27;20267;-42
2023/07/21 05:45:57;;;;;;;;;;;13.80;99.90;;;;;;5133387;27;19907;-44
2023/07/21 05:48:24;;;;;;;;;;;13.80;99.90;;;;;;5134073;27;19911;-44
2023/07/21 05:50:50;;;;;;;;;;;13.80;99.90;;;;;;5134699;27;20320;-46
2023/07/21 05:53:16;;;;;;;;;;;13.90;99.90;;;;;;5122040;27;20374;-48
2023/07/21 05:55:42;;;;;;;;;;;14.00;99.90;;;;;;5129288;27;19912;-43
2023/07/21 05:58:08;;;;;;;;;;;13.90;99.90;;;;;;5139904;27;19932;-46
2023/07/21 06:00:38;;;;;;;;;;;14.00;99.90;;;;;;5135171;27;20358;-43
2023/07/21 06:03:04;;;;;;;;;;;14.10;99.90;;;;;;5131967;27;20405;-43
2023/07/21 06:05:30;;;;;;;;;;;14.20;99.90;;;;;;5127561;27;19916;-44
2023/07/21 06:07:56;;;;;;;;;;;14.20;99.90;;;;;;5128314;27;19908;-48
2023/07/21 06:10:22;;;;;;;;;;;14.20;99.90;;;;;;5125934;27;19934;-44
2023/07/21 06:12:50;;;;;;;;;;;14.30;99.90;;;;;;5125518;27;19911;-44
2023/07/21 06:15:16;;;;;;;;;;;14.30;99.90;;;;;;5126393;27;19942;-45
2023/07/21 06:17:41;;;;;;;;;;;14.40;99.90;;;;;;5144364;27;20365;-44
2023/07/21 06:20:09;;;;;;;;;;;14.40;99.90;;;;;;5125025;27;20006;-45
2023/07/21 06:22:35;;;;;;;;;;;14.50;99.90;;;;;;5140965;27;19980;-45
2023/07/21 06:25:03;;;;;;;;;;;14.60;99.90;;;;;;5141286;27;20261;-44
2023/07/21 06:27:29;;;;;;;;;;;14.70;99.90;;;;;;5142795;27;20413;-44
2023/07/21 06:29:54;;;;;;;;;;;14.70;99.90;;;;;;5142599;27;20026;-44
2023/07/21 06:32:20;;;;;;;;;;;14.80;99.90;;;;;;5141631;27;19954;-47
2023/07/21 06:34:47;;;;;;;;;;;14.90;99.90;;;;;;5137220;27;19920;-44
2023/07/21 06:37:12;;;;;;;;;;;15.00;99.90;;;;;;5135792;27;19911;-47
2023/07/21 06:39:38;;;;;;;;;;;15.10;99.90;;;;;;5135256;27;19937;-44
2023/07/21 06:42:04;;;;;;;;;;;15.10;99.90;;;;;;5141800;27;19919;-45
2023/07/21 06:44:31;;;;;;;;;;;15.20;99.90;;;;;;5140401;27;20261;-43
2023/07/21 06:46:57;;;;;;;;;;;15.20;99.90;;;;;;5134625;27;19930;-45
2023/07/21 06:49:23;;;;;;;;;;;15.30;99.90;;;;;;5142016;27;20444;-43
2023/07/21 06:51:48;;;;;;;;;;;15.30;99.90;;;;;;5140743;27;19907;-45
2023/07/21 06:54:13;;;;;;;;;;;15.50;99.90;;;;;;5133791;27;20391;-44
2023/07/21 06:56:39;;;;;;;;;;;15.60;99.90;;;;;;5124997;27;19911;-45
2023/07/21 06:59:04;;;;;;;;;;;15.60;99.90;;;;;;5128946;27;19911;-44
2023/07/21 07:01:30;;;;;;;;;;;15.70;99.90;;;;;;5139842;27;19915;-47
2023/07/21 07:03:56;;;;;;;;;;;15.80;99.90;;;;;;5134777;27;19907;-44
2023/07/21 07:06:22;;;;;;;;;;;15.90;99.90;;;;;;5142543;27;19932;-44
2023/07/21 07:08:48;;;;;;;;;;;15.90;99.90;;;;;;5141518;27;19912;-45
2023/07/21 07:11:13;;;;;;;;;;;16.00;99.90;;;;;;5137850;27;19923;-43
2023/07/21 07:13:38;;;;;;;;;;;16.00;99.90;;;;;;5143395;27;20371;-43
2023/07/21 07:16:04;;;;;;;;;;;16.10;99.90;;;;;;5143675;27;19946;-47
2023/07/21 07:18:29;;;;;;;;;;;16.10;99.90;;;;;;5140553;27;20254;-43
2023/07/21 07:20:56;;;;;;;;;;;16.20;99.90;;;;;;5139316;27;19911;-44
2023/07/21 07:23:23;;;;;;;;;;;16.30;99.90;;;;;;5147193;27;20016;-44
2023/07/21 07:25:49;;;;;;;;;;;16.30;99.90;;;;;;5135431;27;19915;-43
2023/07/21 07:28:15;;;;;;;;;;;16.30;99.90;;;;;;5139303;27;20369;-43
2023/07/21 07:30:41;;;;;;;;;;;16.40;99.90;;;;;;5142743;27;19915;-44
2023/07/21 07:33:06;;;;;;;;;;;16.40;99.90;;;;;;5130840;27;20432;-45
2023/07/21 07:35:32;;;;;;;;;;;16.50;99.90;;;;;;5135464;27;19911;-55
2023/07/21 07:37:58;;;;;;;;;;;16.50;99.90;;;;;;5132558;27;19911;-46
2023/07/21 07:40:24;;;;;;;;;;;16.60;99.90;;;;;;5131753;27;20621;-43
2023/07/21 07:42:49;;;;;;;;;;;16.60;99.90;;;;;;5142843;27;19922;-43
2023/07/21 07:45:15;;;;;;;;;;;16.60;99.90;;;;;;5143902;27;19915;-43
2023/07/21 07:47:43;;;;;;;;;;;16.60;99.90;;;;;;5143811;27;19914;-44
2023/07/21 07:50:10;;;;;;;;;;;16.60;99.90;;;;;;5141205;27;20336;-48
2023/07/21 07:52:36;;;;;;;;;;;16.70;99.90;;;;;;5117770;27;19916;-43
2023/07/21 07:55:01;;;;;;;;;;;16.70;99.90;;;;;;5115627;28;19916;-44
2023/07/21 07:57:27;;;;;;;;;;;16.80;99.90;;;;;;5137078;27;20372;-43
2023/07/21 07:59:53;;;;;;;;;;;16.90;99.90;;;;;;5121593;27;19912;-47
2023/07/21 08:02:18;;;;;;;;;;;16.90;99.90;;;;;;5139816;27;19911;-43
2023/07/21 08:04:44;;;;;;;;;;;17.00;99.90;;;;;;5136999;27;19919;-45
2023/07/21 08:07:09;;;;;;;;;;;17.10;99.90;;;;;;5127524;27;20429;-43
2023/07/21 08:09:34;;;;;;;;;;;17.10;99.90;;;;;;5135153;27;20350;-43
2023/07/21 08:12:00;;;;;;;;;;;17.20;99.90;;;;;;5129470;27;19926;-49
2023/07/21 08:14:26;;;;;;;;;;;17.20;99.90;;;;;;5117858;27;19920;-44
2023/07/21 08:16:51;;;;;;;;;;;17.30;99.90;;;;;;5126234;27;20010;-44
2023/07/21 08:19:18;;;;;;;;;;;17.40;99.90;;;;;;5131472;27;19911;-44
2023/07/21 08:21:45;;;;;;;;;;;17.40;99.90;;;;;;5128359;27;19911;-44
2023/07/21 08:24:11;;;;;;;;;;;17.50;99.90;;;;;;5123833;27;19912;-44
2023/07/21 08:26:36;;;;;;;;;;;17.50;99.90;;;;;;5115137;28;19933;-43
2023/07/21 08:29:04;;;;;;;;;;;17.60;99.90;;;;;;5114207;28;19908;-49
2023/07/21 08:31:29;;;;;;;;;;;17.60;99.90;;;;;;5149119;27;19922;-43
2023/07/21 08:33:54;;;;;;;;;;;17.70;99.90;;;;;;5155167;27;20331;-44
2023/07/21 08:36:20;;;;;;;;;;;17.80;99.90;;;;;;5155336;27;19918;-48
2023/07/21 08:38:45;;;;;;;;;;;17.90;99.90;;;;;;5149776;27;19912;-44
2023/07/21 08:41:13;;;;;;;;;;;17.90;99.90;;;;;;5140943;27;19920;-42
2023/07/21 08:43:39;;;;;;;;;;;18.00;99.90;;;;;;5135608;27;19954;-43
2023/07/21 08:46:07;;;;;;;;;;;18.00;99.90;;;;;;5136009;27;19941;-47
2023/07/21 08:48:32;;;;;;;;;;;18.10;99.90;;;;;;5136425;27;19918;-44
2023/07/21 08:50:58;;;;;;;;;;;18.20;99.90;;;;;;5129759;27;19915;-44
2023/07/21 08:53:24;;;;;;;;;;;18.30;99.90;;;;;;5155615;27;19911;-45
2023/07/21 08:55:54;;;;;;;;;;;18.40;99.90;;;;;;5155625;27;20002;-48
2023/07/21 08:58:21;;;;;;;;;;;18.40;99.90;;;;;;5128465;27;19920;-44
2023/07/21 09:00:47;;;;;;;;;;;18.50;99.90;;;;;;5115240;28;20006;-48
2023/07/21 09:03:20;;;;;;;;;;;18.50;99.90;;;;;;5114625;28;19915;-48
2023/07/21 09:05:46;;;;;;;;;;;18.60;99.90;;;;;;5115110;28;19908;-44
2023/07/21 09:08:22;;;;;;;;;;;18.70;99.90;;;;;;5114558;28;19907;-43
2023/07/21 09:10:47;;;;;;;;;;;18.70;99.90;;;;;;5121412;27;20006;-44
2023/07/21 09:13:14;;;;;;;;;;;18.70;99.90;;;;;;5113996;28;19966;-45
2023/07/21 09:15:39;;;;;;;;;;;18.80;99.90;;;;;;5114929;28;19916;-43
2023/07/21 09:18:06;;;;;;;;;;;18.80;99.90;;;;;;5113671;28;20026;-43
2023/07/21 09:20:32;;;;;;;;;;;18.90;99.90;;;;;;5114867;28;19908;-44
2023/07/21 09:22:58;;;;;;;;;;;19.00;99.90;;;;;;5128193;27;19976;-44
2023/07/21 09:25:24;;;;;;;;;;;19.10;99.90;;;;;;5134434;27;20259;-44
2023/07/21 09:27:57;;;;;;;;;;;19.20;99.90;;;;;;5135123;27;19970;-46
2023/07/21 09:30:23;;;;;;;;;;;19.20;99.90;;;;;;5135084;27;19915;-43
2023/07/21 09:32:51;;;;;;;;;;;19.30;99.90;;;;;;5134692;27;19907;-44
2023/07/21 09:35:17;;;;;;;;;;;19.40;99.90;;;;;;5134744;27;19916;-42
2023/07/21 09:37:42;;;;;;;;;;;19.60;99.90;;;;;;5134963;27;20454;-43
2023/07/21 09:40:11;;;;;;;;;;;19.70;99.90;;;;;;5134426;27;19907;-44
2023/07/21 09:42:37;;;;;;;;;;;19.80;99.90;;;;;;5134832;27;20008;-43
2023/07/21 09:45:03;;;;;;;;;;;20.00;99.90;;;;;;5134347;27;19930;-44
2023/07/21 09:47:29;;;;;;;;;;;20.10;99.90;;;;;;5134886;27;20362;-44
2023/07/21 09:49:55;;;;;;;;;;;20.10;99.90;;;;;;5134936;27;19998;-44
2023/07/21 09:52:21;;;;;;;;;;;20.20;99.90;;;;;;5134239;27;19911;-44
2023/07/21 09:54:59;;;;;;;;;;;20.40;99.90;;;;;;5135935;27;19926;-43
2023/07/21 09:57:25;;;;;;;;;;;20.50;99.90;;;;;;5141286;27;20275;-43
2023/07/21 09:59:54;;;;;;;;;;;20.40;99.90;;;;;;5135840;27;20389;-44
2023/07/21 10:02:21;;;;;;;;;;;20.40;99.90;;;;;;5134386;27;19915;-44
2023/07/21 10:04:47;;;;;;;;;;;20.40;99.90;;;;;;5132439;27;19923;-44
2023/07/21 10:07:12;;;;;;;;;;;20.50;99.50;;;;;;5125986;27;19908;-43
2023/07/21 10:09:39;;;;;;;;;;;20.60;99.90;;;;;;5130403;27;20358;-44
2023/07/21 10:12:08;;;;;;;;;;;20.50;99.90;;;;;;5134598;27;19915;-45
2023/07/21 10:14:36;;;;;;;;;;;20.60;99.90;;;;;;5134006;27;20006;-44
2023/07/21 10:17:01;;;;;;;;;;;20.70;99.90;;;;;;5134431;27;19907;-44
2023/07/21 10:19:28;;;;;;;;;;;20.70;99.90;;;;;;5134271;27;19918;-42
2023/07/21 10:21:54;;;;;;;;;;;20.70;99.90;;;;;;5133966;28;19907;-44
2023/07/21 10:24:21;;;;;;;;;;;20.70;99.90;;;;;;5134443;28;19983;-45
2023/07/21 10:26:52;;;;;;;;;;;20.70;99.90;;;;;;5137966;27;19936;-45
2023/07/21 10:29:17;;;;;;;;;;;20.70;99.90;;;;;;5154622;27;20246;-43
2023/07/21 10:31:56;;;;;;;;;;;20.80;99.90;;;;;;5135836;27;19915;-44
2023/07/21 10:34:25;;;;;;;;;;;20.90;99.90;;;;;;5139413;27;19971;-48
2023/07/21 10:36:51;;;;;;;;;;;20.90;99.90;;;;;;5125443;27;20258;-44
2023/07/21 10:39:19;;;;;;;;;;;20.90;99.90;;;;;;5128190;28;19911;-43
2023/07/21 10:41:45;;;;;;;;;;;20.90;99.90;;;;;;5119123;28;19920;-44
2023/07/21 10:44:11;;;;;;;;;;;20.80;99.90;;;;;;5113309;28;19919;-44
2023/07/21 10:46:37;;;;;;;;;;;20.80;99.90;;;;;;5127326;27;20429;-44
2023/07/21 10:49:03;;;;;;;;;;;20.80;99.90;;;;;;5118454;27;20339;-44
2023/07/21 10:51:29;;;;;;;;;;;20.90;99.90;;;;;;5128730;27;19912;-43
2023/07/21 10:53:54;;;;;;;;;;;20.90;99.90;;;;;;5136377;27;19911;-43
2023/07/21 10:56:21;;;;;;;;;;;21.00;99.90;;;;;;5135625;27;19946;-44
2023/07/21 10:58:46;;;;;;;;;;;21.20;99.90;;;;;;5157051;27;19911;-44
2023/07/21 11:01:16;;;;;;;;;;;21.30;99.90;;;;;;5140729;27;19908;-45
2023/07/21 11:03:43;;;;;;;;;;;21.30;99.90;;;;;;5117145;28;19908;-44
2023/07/21 11:06:09;;;;;;;;;;;21.20;99.90;;;;;;5147706;27;20321;-44
2023/07/21 11:08:36;;;;;;;;;;;21.20;99.90;;;;;;5158798;27;19907;-44
2023/07/21 11:11:01;;;;;;;;;;;21.20;99.90;;;;;;5155882;27;19951;-46
2023/07/21 11:13:27;;;;;;;;;;;21.20;99.90;;;;;;5149493;27;19993;-43
2023/07/21 11:15:53;;;;;;;;;;;21.30;99.90;;;;;;5142126;27;19985;-44
2023/07/21 11:18:19;;;;;;;;;;;21.30;99.90;;;;;;5153075;27;19911;-43
2023/07/21 11:20:48;;;;;;;;;;;21.40;99.90;;;;;;5155294;27;19907;-43
2023/07/21 11:23:14;;;;;;;;;;;21.40;99.90;;;;;;5141743;27;19911;-46
2023/07/21 11:25:39;;;;;;;;;;;21.50;99.90;;;;;;5121154;27;19994;-47
2023/07/21 11:28:06;;;;;;;;;;;21.70;99.90;;;;;;5128833;27;19911;-43
2023/07/21 11:30:31;;;;;;;;;;;21.90;99.90;;;;;;5136097;27;19918;-43
2023/07/21 11:33:08;;;;;;;;;;;22.00;99.90;;;;;;5130902;27;19915;-44
2023/07/21 11:35:33;;;;;;;;;;;21.90;99.90;;;;;;5117388;27;19927;-42
2023/07/21 11:37:59;;;;;;;;;;;21.70;99.90;;;;;;5137866;27;19911;-45
2023/07/21 11:40:25;;;;;;;;;;;21.60;99.90;;;;;;5148665;27;20282;-44
2023/07/21 11:42:54;;;;;;;;;;;21.60;99.90;;;;;;5136012;27;20420;-44
2023/07/21 11:45:36;;;;;;;;;;;21.50;99.90;;;;;;5147163;27;19907;-44
2023/07/21 11:48:10;;;;;;;;;;;21.40;99.90;;;;;;5141433;27;19911;-44
2023/07/21 11:50:36;;;;;;;;;;;21.40;99.90;;;;;;5141205;27;20009;-46
2023/07/21 11:53:04;;;;;;;;;;;21.30;99.90;;;;;;5151418;27;20502;-41
2023/07/21 11:55:30;;;;;;;;;;;21.40;99.90;;;;;;5140636;27;20496;-43
2023/07/21 11:57:55;;;;;;;;;;;21.60;99.90;;;;;;5135424;27;19932;-42
2023/07/21 12:00:24;;;;;;;;;;;21.50;99.90;;;;;;5114480;27;19915;-46
2023/07/21 12:02:50;;;;;;;;;;;21.50;99.90;;;;;;5134481;27;19911;-43
2023/07/21 12:05:15;;;;;;;;;;;21.40;99.90;;;;;;5143365;27;20412;-45
2023/07/21 12:07:42;;;;;;;;;;;21.50;99.90;;;;;;5136368;27;19907;-43
2023/07/21 12:10:08;;;;;;;;;;;21.70;99.90;;;;;;5136862;27;19908;-42
2023/07/21 12:12:34;;;;;;;;;;;21.80;99.90;;;;;;5127099;27;19965;-46
2023/07/21 12:15:00;;;;;;;;;;;21.90;99.90;;;;;;5127766;27;19928;-43
2023/07/21 12:17:25;;;;;;;;;;;22.00;99.90;;;;;;5116010;28;19984;-43
2023/07/21 12:19:53;;;;;;;;;;;22.00;99.90;;;;;;5115416;28;19918;-44
2023/07/21 12:22:19;;;;;;;;;;;21.90;99.90;;;;;;5115812;28;19933;-43
2023/07/21 12:24:44;;;;;;;;;;;21.90;99.90;;;;;;5151281;27;19915;-43
2023/07/21 12:27:10;;;;;;;;;;;22.00;99.90;;;;;;5156652;27;19945;-43
2023/07/21 12:29:36;;;;;;;;;;;22.00;99.90;;;;;;5157243;27;19947;-47
2023/07/21 12:32:01;;;;;;;;;;;22.10;99.90;;;;;;5157161;27;19976;-45
2023/07/21 12:34:26;;;;;;;;;;;22.30;99.90;;;;;;5133773;27;20393;-44
2023/07/21 12:36:53;;;;;;;;;;;22.40;99.90;;;;;;5121561;27;19912;-45
2023/07/21 12:39:18;;;;;;;;;;;22.60;99.90;;;;;;5113630;27;20300;-45
2023/07/21 12:41:44;;;;;;;;;;;22.80;99.90;;;;;;5119342;27;19920;-44
2023/07/21 12:44:10;;;;;;;;;;;23.00;98.10;;;;;;5138009;27;19937;-47
2023/07/21 12:46:35;;;;;;;;;;;23.10;99.70;;;;;;5139479;27;19923;-45
2023/07/21 12:49:01;;;;;;;;;;;23.10;99.40;;;;;;5123265;27;20013;-43
2023/07/21 12:51:26;;;;;;;;;;;22.90;99.40;;;;;;5123953;27;19911;-45
2023/07/21 12:53:51;;;;;;;;;;;22.70;99.70;;;;;;5131508;27;19915;-42
2023/07/21 12:56:17;;;;;;;;;;;22.50;98.90;;;;;;5114780;28;19912;-45
2023/07/21 12:58:42;;;;;;;;;;;22.30;99.50;;;;;;5114701;28;20369;-44
2023/07/21 13:01:08;;;;;;;;;;;22.10;99.90;;;;;;5114494;28;19912;-43
2023/07/21 13:03:34;;;;;;;;;;;21.90;99.20;;;;;;5118950;27;19908;-43
2023/07/21 13:06:00;;;;;;;;;;;21.80;99.40;;;;;;5134897;27;19912;-47
2023/07/21 13:08:25;;;;;;;;;;;21.70;99.50;;;;;;5134879;27;19912;-43
2023/07/21 13:10:51;;;;;;;;;;;21.60;99.90;;;;;;5133694;27;19908;-44
2023/07/21 13:13:17;;;;;;;;;;;21.40;99.50;;;;;;5137025;27;19908;-42
2023/07/21 13:15:42;;;;;;;;;;;21.30;99.70;;;;;;5155309;27;19922;-45
2023/07/21 13:18:08;;;;;;;;;;;21.30;99.30;;;;;;5154942;27;20346;-46
2023/07/21 13:20:34;;;;;;;;;;;21.30;98.40;;;;;;5155477;27;19907;-46
2023/07/21 13:22:59;;;;;;;;;;;21.20;99.90;;;;;;5154324;27;19911;-44
2023/07/21 13:25:25;;;;;;;;;;;21.00;99.90;;;;;;5114037;28;19911;-45
2023/07/21 13:27:50;;;;;;;;;;;20.60;99.90;;;;;;5134215;27;20397;-45
2023/07/21 13:30:16;;;;;;;;;;;20.20;99.90;;;;;;5133713;27;19922;-43
2023/07/21 13:32:41;;;;;;;;;;;19.90;99.90;;;;;;5134540;27;19908;-45
2023/07/21 13:35:07;;;;;;;;;;;19.50;99.90;;;;;;5134356;27;19915;-42
2023/07/21 13:37:35;;;;;;;;;;;19.30;99.90;;;;;;5134014;27;19911;-45
2023/07/21 13:40:01;;;;;;;;;;;18.90;99.90;;;;;;5115999;27;20297;-43
2023/07/21 13:42:26;;;;;;;;;;;18.80;99.90;;;;;;5133974;27;20017;-43
2023/07/21 13:44:52;;;;;;;;;;;18.60;99.90;;;;;;5133614;27;19918;-42
2023/07/21 13:47:18;;;;;;;;;;;18.40;99.90;;;;;;5134164;27;20006;-44
2023/07/21 13:49:44;;;;;;;;;;;18.20;99.90;;;;;;5134166;27;19907;-43
2023/07/21 13:52:09;;;;;;;;;;;18.00;99.90;;;;;;5133255;27;19907;-45
2023/07/21 13:54:35;;;;;;;;;;;17.80;99.90;;;;;;5145977;27;19923;-45
2023/07/21 13:57:01;;;;;;;;;;;17.60;99.90;;;;;;5154825;27;19913;-44
2023/07/21 13:59:27;;;;;;;;;;;17.50;99.90;;;;;;5154015;27;19956;-43
2023/07/21 14:01:52;;;;;;;;;;;17.40;99.90;;;;;;5154714;27;20326;-45
2023/07/21 14:04:18;;;;;;;;;;;17.30;99.90;;;;;;5147973;27;19919;-43
2023/07/21 14:06:44;;;;;;;;;;;17.20;99.90;;;;;;5133077;27;20021;-45
2023/07/21 14:09:10;;;;;;;;;;;17.10;99.90;;;;;;5146031;27;19971;-46
2023/07/21 14:11:35;;;;;;;;;;;17.10;99.90;;;;;;5154512;27;20342;-43